Time;durP1;ratioP1;P1;durP2;ratioP2;P2;SDS_P1;SDS_P2;PMS_P1;PMS_P2;Temp;Humidity;BMP_temperature;BMP_pressure;BME280_temperature;BME280_humidity;BME280_pressure;Samples;Min_cycle;Max_cycle;Signal;HPM_P1;HPM_P2
2023/08/09 00:04:28;;;;;;;1.60;0.90;;;11.90;1.00;;;;;;9956450;29;20258;-76
2023/08/09 00:09:50;;;;;;;5.40;3.10;;;11.90;1.00;;;;;;9969737;29;20198;-75
2023/08/09 00:15:12;;;;;;;1.83;0.97;;;11.80;1.00;;;;;;9968544;29;20446;-75
2023/08/09 00:20:33;;;;;;;1.57;0.90;;;11.80;1.00;;;;;;9974754;29;20284;-77
2023/08/09 00:25:54;;;;;;;4.43;1.33;;;11.80;1.00;;;;;;9975650;29;20429;-76
2023/08/09 00:31:17;;;;;;;1.63;0.80;;;11.90;1.00;;;;;;9969072;29;20253;-76
2023/08/09 00:36:38;;;;;;;1.80;1.10;;;11.80;1.00;;;;;;9967096;29;20244;-76
2023/08/09 00:42:00;;;;;;;2.03;1.17;;;11.90;1.00;;;;;;9980274;29;20242;-79
2023/08/09 00:47:21;;;;;;;1.80;1.10;;;11.90;1.00;;;;;;9942205;29;20209;-76
2023/08/09 00:52:42;;;;;;;2.50;1.40;;;11.80;1.00;;;;;;9968520;29;20289;-76
2023/08/09 00:58:04;;;;;;;4.60;1.00;;;11.80;1.00;;;;;;9968485;29;20253;-76
2023/08/09 01:03:25;;;;;;;1.97;1.13;;;11.90;1.00;;;;;;9967515;29;20233;-76
2023/08/09 01:08:55;;;;;;;3.17;1.63;;;11.90;1.00;;;;;;9966849;29;20508;-76
2023/08/09 01:14:17;;;;;;;2.30;1.60;;;12.00;1.00;;;;;;9979413;29;20221;-76
2023/08/09 01:19:50;;;;;;;3.63;2.10;;;12.10;1.00;;;;;;9954502;29;20441;-75
2023/08/09 01:25:12;;;;;;;4.23;1.40;;;12.00;31.50;;;;;;9978545;29;20233;-75
2023/08/09 01:30:33;;;;;;;2.57;1.80;;;12.00;2.50;;;;;;9966492;29;20261;-75
2023/08/09 01:36:01;;;;;;;3.53;1.90;;;12.00;1.00;;;;;;9965250;29;20549;-77
2023/08/09 01:41:23;;;;;;;4.07;2.33;;;12.00;1.00;;;;;;9966469;29;20243;-75
2023/08/09 01:46:44;;;;;;;5.60;3.77;;;12.00;15.30;;;;;;9965112;29;20557;-76
2023/08/09 01:52:06;;;;;;;2.93;1.97;;;12.00;53.70;;;;;;9965468;29;20198;-78
2023/08/09 01:57:27;;;;;;;2.33;1.57;;;12.10;6.50;;;;;;9965251;29;20232;-77
2023/08/09 02:02:50;;;;;;;3.17;1.67;;;12.00;32.10;;;;;;9964241;29;20232;-75
2023/08/09 02:08:12;;;;;;;5.50;1.93;;;12.00;43.80;;;;;;9978828;29;20209;-76
2023/08/09 02:13:34;;;;;;;2.50;1.73;;;12.00;23.80;;;;;;9964256;29;20216;-75
2023/08/09 02:18:55;;;;;;;4.53;2.23;;;12.00;64.80;;;;;;9952721;29;20231;-76
2023/08/09 02:24:16;;;;;;;4.73;1.97;;;12.10;30.70;;;;;;9972131;29;20562;-75
2023/08/09 02:29:37;;;;;;;2.80;2.47;;;12.10;38.00;;;;;;9951879;29;20209;-76
2023/08/09 02:34:59;;;;;;;2.97;2.07;;;12.10;72.50;;;;;;9963829;29;20242;-78
2023/08/09 02:46:40;;;;;;;4.23;2.30;;;12.10;25.00;;;;;;9964598;29;20222;-77
2023/08/09 02:52:01;;;;;;;2.20;1.90;;;12.20;1.00;;;;;;9963798;29;20212;-78
2023/08/09 02:57:22;;;;;;;5.17;1.80;;;12.20;1.00;;;;;;9964761;29;20210;-76
2023/08/09 03:02:43;;;;;;;2.30;1.63;;;12.20;1.00;;;;;;9963861;29;20270;-76
2023/08/09 03:08:05;;;;;;;2.87;1.53;;;12.20;1.00;;;;;;9965723;29;20200;-75
2023/08/09 03:13:26;;;;;;;3.63;2.00;;;12.20;1.00;;;;;;9963609;29;20520;-75
2023/08/09 03:18:48;;;;;;;2.97;1.43;;;12.20;1.00;;;;;;9951393;29;20262;-76
2023/08/09 03:24:11;;;;;;;3.93;1.97;;;12.30;4.30;;;;;;9968955;29;20237;-76
2023/08/09 03:29:33;;;;;;;2.67;1.93;;;12.20;1.00;;;;;;9964540;29;20204;-76
2023/08/09 03:34:56;;;;;;;1.83;1.60;;;12.30;1.00;;;;;;9936308;29;20254;-76
2023/08/09 03:40:19;;;;;;;2.80;1.90;;;12.30;1.00;;;;;;9966401;29;20504;-75
2023/08/09 03:45:40;;;;;;;2.90;1.87;;;12.30;1.00;;;;;;9941468;29;20226;-75
2023/08/09 03:51:02;;;;;;;3.03;1.90;;;12.30;1.00;;;;;;9940852;29;20261;-76
2023/08/09 03:56:23;;;;;;;4.77;1.73;;;12.30;1.00;;;;;;9984696;29;20212;-76
2023/08/09 04:01:43;;;;;;;5.47;2.10;;;12.30;1.00;;;;;;10005304;29;20541;-75
2023/08/09 04:07:05;;;;;;;2.90;2.03;;;12.30;1.00;;;;;;9970018;29;20206;-77
2023/08/09 04:12:26;;;;;;;2.00;1.60;;;12.30;1.00;;;;;;9968762;29;20209;-76
2023/08/09 04:17:48;;;;;;;3.27;1.70;;;12.40;1.00;;;;;;9969686;29;20277;-76
2023/08/09 04:23:09;;;;;;;3.60;1.80;;;12.40;1.00;;;;;;9968762;29;20457;-75
2023/08/09 04:28:30;;;;;;;3.60;1.80;;;12.40;1.00;;;;;;9970210;29;20214;-76
2023/08/09 04:33:51;;;;;;;2.13;1.70;;;12.40;1.00;;;;;;9968319;29;20249;-75
2023/08/09 04:39:13;;;;;;;3.67;2.03;;;12.40;1.00;;;;;;9968345;29;20209;-76
2023/08/09 04:44:34;;;;;;;5.10;1.90;;;12.50;1.00;;;;;;9968032;29;20254;-76
2023/08/09 04:49:55;;;;;;;2.80;1.47;;;12.50;1.00;;;;;;9968437;29;20226;-77
2023/08/09 04:55:17;;;;;;;3.80;1.40;;;12.50;1.00;;;;;;9967955;29;20213;-76
2023/08/09 05:00:38;;;;;;;4.80;1.77;;;12.60;1.00;;;;;;9954403;29;20194;-76
2023/08/09 05:06:01;;;;;;;4.57;1.67;;;12.60;1.00;;;;;;9968818;29;20302;-81
2023/08/09 05:11:22;;;;;;;4.00;1.70;;;12.60;1.00;;;;;;9966450;29;20379;-77
2023/08/09 05:16:43;;;;;;;4.60;1.97;;;12.70;1.00;;;;;;9968544;29;20434;-78
2023/08/09 05:22:05;;;;;;;6.67;1.97;;;12.80;99.90;;;;;;9967205;29;20234;-77
2023/08/09 05:27:27;;;;;;;3.63;1.60;;;12.90;99.90;;;;;;9966902;29;20217;-76
2023/08/09 05:32:48;;;;;;;4.10;2.07;;;12.90;99.90;;;;;;9965938;29;20254;-77
2023/08/09 05:38:09;;;;;;;7.13;1.80;;;13.00;1.00;;;;;;9965944;29;20323;-78
2023/08/09 05:43:30;;;;;;;4.53;1.40;;;13.00;74.10;;;;;;9928749;29;20269;-76
2023/08/09 05:48:52;;;;;;;5.73;1.67;;;13.00;1.00;;;;;;9951524;29;20202;-80
2023/08/09 05:54:13;;;;;;;4.80;1.23;;;13.00;1.00;;;;;;9965762;29;20206;-80
2023/08/09 05:59:34;;;;;;;5.03;1.60;;;13.20;1.00;;;;;;9966304;29;20198;-79
2023/08/09 06:04:55;;;;;;;5.70;1.60;;;13.30;1.00;;;;;;9965470;29;20283;-77
2023/08/09 06:10:16;;;;;;;3.87;1.47;;;13.60;1.00;;;;;;9965443;29;20212;-80
2023/08/09 06:15:37;;;;;;;6.40;1.20;;;13.80;99.90;;;;;;9952828;29;20501;-76
2023/08/09 06:20:59;;;;;;;5.10;1.17;;;13.90;1.00;;;;;;9965185;29;20215;-76
2023/08/09 06:26:20;;;;;;;6.50;1.33;;;14.10;1.00;;;;;;9965112;29;20238;-76
2023/08/09 06:31:41;;;;;;;4.10;1.57;;;14.30;1.00;;;;;;9967970;29;20428;-76
2023/08/09 06:37:02;;;;;;;5.37;1.57;;;14.50;99.90;;;;;;9964402;29;20255;-77
2023/08/09 06:42:24;;;;;;;4.13;1.23;;;14.70;1.00;;;;;;9948498;29;20257;-76
2023/08/09 06:47:49;;;;;;;5.70;1.27;;;14.80;99.90;;;;;;9964833;29;20207;-77
2023/08/09 06:53:11;;;;;;;3.80;1.55;;;15.20;99.90;;;;;;9963816;29;20215;-78
2023/08/09 06:58:33;;;;;;;9.85;1.30;;;15.50;99.90;;;;;;9964582;29;20559;-76
2023/08/09 07:03:55;;;;;;;5.88;1.35;;;16.30;1.00;;;;;;9964286;29;20302;-79
2023/08/09 07:09:18;;;;;;;6.72;1.52;;;17.10;1.00;;;;;;9965119;29;20202;-76
2023/08/09 07:14:40;;;;;;;5.45;1.73;;;17.70;99.90;;;;;;9941680;29;20246;-78
2023/08/09 07:20:02;;;;;;;3.33;1.33;;;18.30;92.60;;;;;;9963864;29;20269;-79
2023/08/09 07:25:24;;;;;;;3.50;1.33;;;18.60;1.00;;;;;;9966341;29;20434;-77
2023/08/09 07:30:45;;;;;;;8.90;1.83;;;19.20;1.00;;;;;;9972026;29;20253;-77
2023/08/09 07:36:06;;;;;;;9.98;1.58;;;19.80;1.00;;;;;;9965339;29;20328;-84
2023/08/09 07:41:27;;;;;;;3.45;1.30;;;20.40;1.00;;;;;;9955696;29;20265;-77
2023/08/09 07:46:48;;;;;;;5.35;1.58;;;21.10;1.00;;;;;;9942988;29;20216;-77
2023/08/09 07:52:09;;;;;;;4.50;1.45;;;21.80;1.00;;;;;;9979605;29;20207;-83
2023/08/09 07:57:31;;;;;;;2.42;0.90;;;22.00;1.00;;;;;;10002742;29;20235;-77
2023/08/09 08:02:53;;;;;;;8.75;1.83;;;22.40;1.00;;;;;;9998181;29;20231;-77
2023/08/09 08:08:14;;;;;;;2.72;1.13;;;21.90;1.00;;;;;;9980956;29;20208;-78
2023/08/09 08:13:35;;;;;;;2.55;1.10;;;21.70;1.00;;;;;;9972812;29;20269;-81
2023/08/09 08:18:57;;;;;;;4.05;1.65;;;22.00;1.00;;;;;;9952293;29;20196;-78
2023/08/09 08:24:18;;;;;;;3.70;1.40;;;21.30;1.00;;;;;;9960934;29;20262;-78
2023/08/09 08:29:39;;;;;;;1.95;1.10;;;21.10;1.00;;;;;;9943717;29;20271;-79
2023/08/09 08:35:02;;;;;;;2.60;1.33;;;;;;;;;;9962895;29;20262;-81
2023/08/09 08:40:23;;;;;;;4.20;1.20;;;20.10;1.00;;;;;;9963432;29;20392;-84
2023/08/09 08:45:48;;;;;;;5.70;1.77;;;20.90;1.00;;;;;;9975944;29;20489;-78
2023/08/09 08:51:10;;;;;;;5.03;1.38;;;21.30;1.00;;;;;;9962274;29;20269;-80
2023/08/09 08:56:33;;;;;;;4.13;1.38;;;21.80;1.00;;;;;;9963616;29;20563;-82
2023/08/09 09:01:54;;;;;;;3.35;1.45;;;23.10;99.90;;;;;;9962454;29;20220;-79
2023/08/09 09:07:15;;;;;;;5.57;1.50;;;22.80;1.00;;;;;;9962205;29;20200;-83
2023/08/09 09:12:37;;;;;;;2.00;0.85;;;22.80;1.00;;;;;;9950968;29;20211;-81
2023/08/09 09:18:05;;;;;;;3.40;0.93;;;22.00;1.00;;;;;;9956964;29;20406;-81
2023/08/09 09:23:28;;;;;;;2.70;1.20;;;22.60;1.00;;;;;;9973750;29;20244;-81
2023/08/09 09:28:50;;;;;;;3.95;1.00;;;22.40;1.00;;;;;;9950719;29;20208;-80
2023/08/09 09:34:13;;;;;;;2.90;1.45;;;21.90;1.00;;;;;;9974075;29;20213;-77
2023/08/09 09:39:35;;;;;;;2.80;0.90;;;21.10;1.00;;;;;;9963383;29;20193;-77
2023/08/09 09:45:23;;;;;;;2.03;1.10;;;20.50;1.00;;;;;;9960234;29;20247;-78
2023/08/09 09:50:45;;;;;;;3.00;1.05;;;20.30;1.00;;;;;;9960917;29;20216;-77
2023/08/09 09:56:06;;;;;;;4.10;1.23;;;20.40;1.00;;;;;;9961258;29;20216;-80
2023/08/09 10:01:29;;;;;;;3.35;1.10;;;20.20;1.00;;;;;;9961350;29;20857;-79
2023/08/09 10:06:51;;;;;;;3.53;1.20;;;20.90;1.00;;;;;;9961315;29;20254;-78
2023/08/09 10:12:13;;;;;;;2.85;1.27;;;21.50;1.00;;;;;;9960858;29;20287;-83
2023/08/09 10:17:35;;;;;;;2.17;1.08;;;22.50;1.00;;;;;;9960237;29;20247;-77
2023/08/09 10:22:58;;;;;;;4.40;1.10;;;23.40;1.00;;;;;;9960446;29;20278;-82
2023/08/09 10:28:40;;;;;;;5.07;1.10;;;23.00;1.00;;;;;;9959939;29;20196;-79
2023/08/09 10:34:11;;;;;;;2.67;1.10;;;23.10;1.00;;;;;;9944454;29;20238;-80
2023/08/09 10:39:34;;;;;;;3.47;0.85;;;22.90;1.00;;;;;;9961172;29;20382;-82
2023/08/09 10:45:03;;;;;;;2.17;0.82;;;23.80;1.00;;;;;;9946181;29;20285;-82
2023/08/09 10:50:31;;;;;;;1.83;0.90;;;24.20;1.00;;;;;;9947122;29;20217;-82
2023/08/09 10:55:58;;;;;;;1.80;1.10;;;24.10;1.00;;;;;;9963471;29;20232;-86
2023/08/09 11:01:19;;;;;;;2.88;0.80;;;23.40;1.00;;;;;;9968589;29;20344;-82
2023/08/09 11:06:42;;;;;;;2.72;1.05;;;22.90;1.00;;;;;;9967687;29;20554;-80
2023/08/09 11:12:06;;;;;;;2.35;1.23;;;22.50;1.00;;;;;;9953597;29;20235;-84
2023/08/09 11:17:27;;;;;;;1.98;0.95;;;22.40;1.00;;;;;;9951173;29;20696;-79
2023/08/09 11:22:53;;;;;;;4.05;1.60;;;22.20;1.00;;;;;;9945474;29;20321;-80
2023/08/09 11:28:14;;;;;;;1.60;0.95;;;22.00;1.00;;;;;;9956504;29;20284;-78
2023/08/09 11:33:35;;;;;;;1.92;0.90;;;21.90;1.00;;;;;;9975655;29;20231;-79
2023/08/09 11:39:00;;;;;;;5.13;1.75;;;22.00;1.00;;;;;;9973077;29;20268;-79
2023/08/09 11:44:32;;;;;;;1.60;0.70;;;21.80;1.00;;;;;;9947381;29;20543;-80
2023/08/09 11:49:53;;;;;;;2.20;0.93;;;21.60;1.00;;;;;;9949644;29;20442;-79
2023/08/09 11:55:15;;;;;;;2.08;0.93;;;22.30;1.00;;;;;;9948905;29;20262;-80
2023/08/09 12:00:40;;;;;;;25.33;1.85;;;22.30;1.00;;;;;;9975914;29;20212;-78
2023/08/09 12:06:01;;;;;;;3.38;1.20;;;22.30;1.00;;;;;;10002541;29;20525;-80
2023/08/09 12:11:22;;;;;;;2.45;1.08;;;23.10;1.00;;;;;;9986379;29;20515;-82
2023/08/09 12:16:44;;;;;;;2.53;0.90;;;23.60;1.00;;;;;;9977826;29;20216;-84
2023/08/09 12:22:05;;;;;;;1.60;0.95;;;23.50;99.90;;;;;;9961217;29;20283;-80
2023/08/09 12:27:27;;;;;;;2.78;1.48;;;22.70;99.90;;;;;;9963972;29;20216;-79
2023/08/09 12:32:48;;;;;;;3.15;1.00;;;22.70;99.90;;;;;;9962651;29;20247;-80
2023/08/09 12:38:09;;;;;;;1.92;1.17;;;22.30;99.90;;;;;;9947417;29;20507;-80
2023/08/09 12:43:31;;;;;;;4.70;1.00;;;22.40;99.90;;;;;;9937454;29;20273;-80
2023/08/09 12:48:52;;;;;;;4.82;1.33;;;22.40;99.90;;;;;;9960553;29;20262;-79
2023/08/09 12:54:13;;;;;;;4.10;0.98;;;22.80;99.90;;;;;;9935257;29;20205;-84
2023/08/09 12:59:35;;;;;;;2.55;1.25;;;23.10;99.90;;;;;;9962612;29;20495;-83
2023/08/09 13:04:57;;;;;;;4.28;1.45;;;23.00;99.90;;;;;;9912835;29;20247;-81
2023/08/09 13:10:20;;;;;;;2.28;0.85;;;22.80;99.90;;;;;;9935805;29;20457;-81
2023/08/09 13:15:42;;;;;;;4.53;1.23;;;23.30;99.90;;;;;;9983857;29;20291;-80
2023/08/09 13:21:05;;;;;;;3.05;1.35;;;23.50;99.90;;;;;;9935698;29;20224;-81
2023/08/09 13:26:27;;;;;;;6.70;1.80;;;23.50;99.90;;;;;;9927873;29;20356;-80
2023/08/09 13:31:48;;;;;;;4.50;1.40;;;23.20;99.90;;;;;;9924715;29;20503;-81
2023/08/09 13:37:10;;;;;;;2.72;1.55;;;22.50;99.90;;;;;;9949019;29;20244;-81
2023/08/09 13:42:31;;;;;;;6.20;3.05;;;22.20;99.90;;;;;;9950107;29;20478;-81
2023/08/09 13:47:53;;;;;;;3.35;1.23;;;21.80;99.90;;;;;;9944378;29;20300;-81
2023/08/09 13:53:15;;;;;;;4.13;1.25;;;21.80;99.90;;;;;;9937789;29;20221;-80
2023/08/09 13:58:36;;;;;;;4.82;1.45;;;21.70;99.90;;;;;;9947258;29;20236;-81
2023/08/09 14:03:57;;;;;;;4.65;1.48;;;22.00;99.90;;;;;;9960774;29;20542;-80
2023/08/09 14:09:18;;;;;;;3.35;1.60;;;22.30;99.90;;;;;;9946782;29;20461;-81
2023/08/09 14:14:40;;;;;;;4.20;2.15;;;22.40;99.90;;;;;;9951544;29;20216;-84
2023/08/09 14:20:01;;;;;;;3.95;2.20;;;22.20;99.90;;;;;;9923230;29;20270;-85
2023/08/09 14:25:23;;;;;;;4.60;1.92;;;22.00;99.90;;;;;;9909707;29;20466;-82
2023/08/09 14:30:44;;;;;;;3.47;1.63;;;21.90;99.90;;;;;;9943660;29;20261;-80
2023/08/09 14:36:07;;;;;;;2.80;1.60;;;21.50;99.90;;;;;;9934349;29;20244;-83
2023/08/09 14:41:28;;;;;;;6.65;2.20;;;21.20;99.90;;;;;;9962640;29;20286;-82
2023/08/09 14:46:49;;;;;;;6.00;1.40;;;21.10;99.90;;;;;;9959800;29;20243;-82
2023/08/09 14:52:11;;;;;;;4.57;1.23;;;21.30;99.90;;;;;;9950558;29;20315;-82
2023/08/09 14:57:32;;;;;;;7.90;1.60;;;21.10;99.90;;;;;;9947550;29;20518;-83
2023/08/09 15:02:54;;;;;;;2.58;1.30;;;20.90;99.90;;;;;;9961619;29;20276;-82
2023/08/09 15:08:16;;;;;;;7.47;1.35;;;20.70;99.90;;;;;;9979411;29;20405;-80
2023/08/09 15:13:37;;;;;;;3.63;1.05;;;20.50;99.90;;;;;;9985237;29;20214;-80
2023/08/09 15:18:59;;;;;;;3.50;1.30;;;20.40;99.90;;;;;;9953716;29;20218;-80
2023/08/09 15:24:20;;;;;;;2.38;1.00;;;20.30;99.90;;;;;;9929996;29;20233;-80
2023/08/09 15:29:41;;;;;;;3.20;1.40;;;20.40;99.90;;;;;;9927127;30;20246;-80
2023/08/09 15:35:04;;;;;;;2.10;0.88;;;20.50;99.90;;;;;;9937356;29;20436;-80
2023/08/09 15:40:25;;;;;;;2.47;1.40;;;20.50;99.90;;;;;;9965474;29;20245;-80
2023/08/09 15:45:46;;;;;;;6.18;1.30;;;20.40;99.90;;;;;;9969062;29;20244;-79
2023/08/09 15:51:08;;;;;;;3.15;1.02;;;20.20;99.90;;;;;;10005031;29;20195;-80
2023/08/09 15:56:29;;;;;;;3.67;1.15;;;20.00;99.90;;;;;;10000878;29;20523;-80
2023/08/09 16:01:50;;;;;;;3.65;1.38;;;19.90;99.90;;;;;;9992893;29;20291;-79
2023/08/09 16:07:12;;;;;;;3.65;1.45;;;19.80;1.00;;;;;;9985807;29;20490;-80
2023/08/09 16:12:33;;;;;;;3.63;1.35;;;19.80;1.00;;;;;;10008531;29;20199;-80
2023/08/09 16:17:54;;;;;;;3.55;1.48;;;19.70;1.00;;;;;;9971334;29;20209;-79
2023/08/09 16:23:16;;;;;;;3.08;1.27;;;19.50;1.00;;;;;;9945953;29;20277;-79
2023/08/09 16:28:37;;;;;;;5.10;1.38;;;19.40;1.00;;;;;;9945030;29;20243;-80
2023/08/09 16:33:59;;;;;;;3.65;1.40;;;19.40;1.00;;;;;;9932086;29;20205;-80
2023/08/09 16:39:20;;;;;;;3.65;1.27;;;19.30;1.00;;;;;;9950685;29;20213;-80
2023/08/09 16:44:41;;;;;;;3.53;1.30;;;19.20;1.00;;;;;;9969860;29;20538;-80
2023/08/09 16:50:04;;;;;;;4.50;1.40;;;19.20;1.00;;;;;;9957088;29;20298;-80
2023/08/09 16:55:26;;;;;;;2.60;1.27;;;19.00;1.00;;;;;;9968412;29;20258;-80
2023/08/09 17:00:47;;;;;;;5.95;1.58;;;18.90;1.00;;;;;;9965794;29;20237;-80
2023/08/09 17:06:08;;;;;;;5.00;1.15;;;18.70;1.00;;;;;;9981231;29;20231;-80
2023/08/09 17:11:29;;;;;;;3.28;1.33;;;18.60;1.00;;;;;;9966923;29;20251;-79
2023/08/09 17:16:51;;;;;;;5.05;1.13;;;18.40;1.00;;;;;;9967111;29;20212;-80
2023/08/09 17:22:12;;;;;;;10.15;2.13;;;18.20;1.00;;;;;;9967323;29;20219;-80
2023/08/09 17:27:33;;;;;;;3.95;1.38;;;18.20;1.00;;;;;;9952993;29;20435;-80
2023/08/09 17:32:57;;;;;;;5.75;1.52;;;18.10;1.00;;;;;;9953798;29;20213;-80
2023/08/09 17:38:26;;;;;;;5.03;1.33;;;18.00;1.00;;;;;;9951638;29;20278;-79
2023/08/09 17:43:48;;;;;;;5.65;1.63;;;17.80;1.00;;;;;;9979574;29;20561;-80
2023/08/09 17:49:09;;;;;;;4.38;1.60;;;17.70;1.00;;;;;;9985890;29;20205;-80
2023/08/09 17:54:31;;;;;;;2.25;1.33;;;;;;;;;;10005305;29;20202;-80
2023/08/09 17:59:53;;;;;;;2.88;1.33;;;;;;;;;;9962192;29;20212;-80
2023/08/09 18:05:14;;;;;;;2.95;1.33;;;;;;;;;;9951704;29;20232;-80
2023/08/09 18:10:36;;;;;;;4.82;1.90;;;;;;;;;;9966546;29;20245;-80
2023/08/09 18:15:58;;;;;;;4.97;1.40;;;;;;;;;;9964568;29;20208;-80
2023/08/09 18:21:22;;;;;;;4.68;1.80;;;;;;;;;;9958233;29;20204;-80
2023/08/09 18:26:44;;;;;;;4.07;1.58;;;;;;;;;;9961817;29;20453;-80
2023/08/09 18:32:07;;;;;;;3.00;1.40;;;17.20;1.00;;;;;;9929774;29;20219;-80
2023/08/09 18:37:28;;;;;;;3.13;1.48;;;17.00;1.00;;;;;;9930643;29;20428;-78
2023/08/09 18:42:50;;;;;;;5.43;2.28;;;17.00;1.00;;;;;;9941098;29;20240;-78
2023/08/09 18:48:12;;;;;;;5.65;1.95;;;17.00;1.00;;;;;;9952598;29;20525;-80
2023/08/09 18:53:33;;;;;;;3.58;2.30;;;16.90;1.00;;;;;;9933852;29;20219;-80
2023/08/09 18:58:54;;;;;;;5.18;2.95;;;16.90;1.00;;;;;;9951184;29;20265;-79
2023/08/09 19:04:16;;;;;;;6.95;3.15;;;16.80;1.00;;;;;;10001787;29;20316;-80
2023/08/09 19:09:38;;;;;;;6.60;2.40;;;16.70;1.00;;;;;;9996082;29;20286;-79
2023/08/09 19:14:59;;;;;;;3.22;2.10;;;16.70;1.00;;;;;;9993257;29;20206;-79
2023/08/09 19:20:21;;;;;;;6.60;2.22;;;16.60;1.00;;;;;;9972648;29;20214;-78
2023/08/09 19:25:42;;;;;;;6.00;2.03;;;16.60;1.00;;;;;;9948580;29;21438;-81
2023/08/09 19:31:06;;;;;;;5.80;2.03;;;16.40;1.00;;;;;;9969581;29;20194;-78
2023/08/09 19:36:27;;;;;;;5.30;2.08;;;16.40;1.00;;;;;;9956792;29;20325;-78
2023/08/09 19:41:48;;;;;;;5.32;2.15;;;16.30;1.00;;;;;;9963580;29;20260;-80
2023/08/09 19:47:10;;;;;;;2.70;1.60;;;;;;;;;;9972059;29;20239;-80
2023/08/09 19:52:31;;;;;;;3.42;1.80;;;;;;;;;;9970692;29;20207;-80
2023/08/09 19:57:54;;;;;;;8.00;2.40;;;;;;;;;;9957228;29;20243;-80
2023/08/09 20:03:16;;;;;;;10.18;4.88;;;;;;;;;;9957744;29;20235;-80
2023/08/09 20:08:38;;;;;;;12.20;4.40;;;;;;;;;;9956409;29;20219;-80
2023/08/09 20:13:59;;;;;;;11.55;3.97;;;;;;;;;;9983160;29;20278;-80
2023/08/09 20:19:21;;;;;;;9.68;3.97;;;;;;;;;;9973730;29;20212;-80
2023/08/09 20:24:44;;;;;;;8.98;4.57;;;;;;;;;;9982214;29;20238;-80
2023/08/09 20:30:06;;;;;;;15.13;5.88;;;;;;;;;;9968000;29;20455;-80
2023/08/09 20:35:27;;;;;;;11.52;5.60;;;;;;;;;;9970397;29;20319;-80
2023/08/09 20:40:52;;;;;;;14.93;7.05;;;;;;;;;;9955679;29;20215;-80
2023/08/09 20:46:13;;;;;;;13.38;5.35;;;;;;;;;;9969865;29;20247;-80
2023/08/09 20:51:35;;;;;;;15.93;5.53;;;;;;;;;;9968757;29;20209;-79
2023/08/09 20:56:57;;;;;;;9.77;4.57;;;;;;;;;;9969534;29;20211;-80
2023/08/09 21:02:18;;;;;;;14.52;4.47;;;;;;;;;;9955411;29;20289;-80
2023/08/09 21:07:40;;;;;;;18.65;6.47;;;;;;;;;;9967734;29;20230;-80
2023/08/09 21:13:02;;;;;;;12.98;5.07;;;;;;;;;;9980979;29;20198;-80
2023/08/09 21:18:23;;;;;;;16.92;4.63;;;;;;;;;;9953190;29;20229;-80
2023/08/09 21:23:45;;;;;;;13.40;3.95;;;;;;;;;;9967890;29;20207;-79
2023/08/09 21:29:09;;;;;;;8.55;3.03;;;;;;;;;;9966785;29;20222;-79
2023/08/09 21:34:30;;;;;;;7.57;3.00;;;;;;;;;;9967270;29;20492;-78
2023/08/09 21:39:52;;;;;;;5.50;2.70;;;;;;;;;;9943138;29;20220;-78
2023/08/09 21:45:13;;;;;;;6.28;2.55;;;;;;;;;;9974542;29;20421;-79
2023/08/09 21:50:35;;;;;;;2.90;2.00;;;;;;;;;;9972757;29;20198;-78
2023/08/09 21:55:57;;;;;;;5.57;2.28;;;;;;;;;;9974504;29;20229;-81
2023/08/09 22:01:18;;;;;;;6.15;2.80;;;;;;;;;;9947945;29;20214;-79
2023/08/09 22:06:40;;;;;;;4.93;2.30;;;;;;;;;;9965943;29;20252;-79
2023/08/09 22:12:01;;;;;;;7.32;2.50;;;;;;;;;;9942438;29;20217;-78
2023/08/09 22:17:24;;;;;;;4.80;2.50;;;;;;;;;;9968292;29;20213;-78
2023/08/09 22:22:46;;;;;;;5.63;2.95;;;;;;;;;;9967319;29;20581;-77
2023/08/09 22:28:11;;;;;;;7.13;2.80;;;;;;;;;;9964241;29;20249;-79
2023/08/09 22:33:32;;;;;;;7.00;2.60;;;;;;;;;;9967062;29;20202;-80
2023/08/09 22:38:53;;;;;;;6.38;2.42;;;14.10;1.00;;;;;;9940352;29;20614;-80
2023/08/09 22:44:15;;;;;;;3.17;2.03;;;;;;;;;;9965432;29;20234;-77
2023/08/09 22:49:36;;;;;;;5.85;2.28;;;14.30;1.00;;;;;;9989806;29;20205;-78
2023/08/09 22:54:57;;;;;;;5.30;1.80;;;14.20;1.00;;;;;;9993725;29;20261;-78
2023/08/09 23:00:19;;;;;;;4.97;1.67;;;14.20;1.00;;;;;;9964426;29;20206;-78
2023/08/09 23:05:40;;;;;;;3.83;1.88;;;14.10;99.90;;;;;;9978220;29;20228;-78
2023/08/09 23:11:04;;;;;;;2.67;1.80;;;14.10;99.90;;;;;;9976486;29;20215;-79
2023/08/09 23:16:27;;;;;;;3.33;1.77;;;14.10;99.90;;;;;;9963840;29;20219;-79
2023/08/09 23:21:49;;;;;;;4.32;1.88;;;14.00;99.90;;;;;;9963072;29;20202;-79
2023/08/09 23:27:10;;;;;;;3.92;2.05;;;14.00;99.90;;;;;;9976932;29;20229;-79
2023/08/09 23:32:35;;;;;;;4.60;1.95;;;13.90;1.00;;;;;;9976533;29;20201;-79
2023/08/09 23:37:56;;;;;;;3.08;1.70;;;13.80;1.00;;;;;;9975237;29;20261;-80
2023/08/09 23:43:18;;;;;;;3.95;1.80;;;13.80;1.00;;;;;;9974780;29;20492;-79
2023/08/09 23:48:39;;;;;;;4.15;2.00;;;13.70;1.00;;;;;;10005374;29;20228;-80
2023/08/09 23:54:01;;;;;;;4.18;1.98;;;13.70;99.90;;;;;;9980210;29;20226;-79
2023/08/09 23:59:22;;;;;;;3.05;1.48;;;13.60;99.90;;;;;;9976993;29;20212;-79
